sensor_id;sensor_type;location;lat;lon;timestamp;P1;durP1;ratioP1;P2;durP2;ratioP2
65706;SDS011;52423;43.512;5.220;2023-06-24T00:01:44;4.28;;;3.17;;
65706;SDS011;52423;43.512;5.220;2023-06-24T00:04:10;4.05;;;3.00;;
65706;SDS011;52423;43.512;5.220;2023-06-24T00:06:35;2.83;;;2.60;;
65706;SDS011;52423;43.512;5.220;2023-06-24T00:09:02;3.78;;;2.60;;
65706;SDS011;52423;43.512;5.220;2023-06-24T00:11:28;4.10;;;2.35;;
65706;SDS011;52423;43.512;5.220;2023-06-24T00:13:54;2.80;;;2.60;;
65706;SDS011;52423;43.512;5.220;2023-06-24T00:16:20;3.78;;;2.72;;
65706;SDS011;52423;43.512;5.220;2023-06-24T00:21:18;2.83;;;2.63;;
65706;SDS011;52423;43.512;5.220;2023-06-24T00:23:44;4.22;;;2.35;;
65706;SDS011;52423;43.512;5.220;2023-06-24T00:26:10;3.15;;;2.47;;
65706;SDS011;52423;43.512;5.220;2023-06-24T00:28:35;2.88;;;2.63;;
65706;SDS011;52423;43.512;5.220;2023-06-24T00:31:01;5.47;;;2.80;;
65706;SDS011;52423;43.512;5.220;2023-06-24T00:33:28;4.32;;;2.90;;
65706;SDS011;52423;43.512;5.220;2023-06-24T00:35:53;2.90;;;2.70;;
65706;SDS011;52423;43.512;5.220;2023-06-24T00:38:19;5.75;;;3.30;;
65706;SDS011;52423;43.512;5.220;2023-06-24T00:40:45;2.95;;;2.60;;
65706;SDS011;52423;43.512;5.220;2023-06-24T00:43:11;2.78;;;2.55;;
65706;SDS011;52423;43.512;5.220;2023-06-24T00:45:37;2.97;;;2.67;;
65706;SDS011;52423;43.512;5.220;2023-06-24T00:48:02;4.85;;;2.67;;
65706;SDS011;52423;43.512;5.220;2023-06-24T00:50:28;2.72;;;2.40;;
65706;SDS011;52423;43.512;5.220;2023-06-24T00:52:54;2.85;;;2.65;;
65706;SDS011;52423;43.512;5.220;2023-06-24T00:55:19;6.00;;;2.75;;
65706;SDS011;52423;43.512;5.220;2023-06-24T00:57:46;3.20;;;2.80;;
65706;SDS011;52423;43.512;5.220;2023-06-24T01:00:20;3.10;;;2.57;;
65706;SDS011;52423;43.512;5.220;2023-06-24T01:02:48;3.70;;;2.10;;
65706;SDS011;52423;43.512;5.220;2023-06-24T01:05:14;2.78;;;2.55;;
65706;SDS011;52423;43.512;5.220;2023-06-24T01:07:41;4.45;;;2.50;;
65706;SDS011;52423;43.512;5.220;2023-06-24T01:10:07;3.25;;;2.88;;
65706;SDS011;52423;43.512;5.220;2023-06-24T01:12:35;6.10;;;3.17;;
65706;SDS011;52423;43.512;5.220;2023-06-24T01:15:09;4.53;;;2.95;;
65706;SDS011;52423;43.512;5.220;2023-06-24T01:17:36;2.92;;;2.60;;
65706;SDS011;52423;43.512;5.220;2023-06-24T01:28:26;3.22;;;2.65;;
65706;SDS011;52423;43.512;5.220;2023-06-24T01:37:15;2.88;;;2.67;;
65706;SDS011;52423;43.512;5.220;2023-06-24T01:39:56;3.67;;;2.65;;
65706;SDS011;52423;43.512;5.220;2023-06-24T01:42:34;2.80;;;2.60;;
65706;SDS011;52423;43.512;5.220;2023-06-24T01:45:03;2.67;;;2.47;;
65706;SDS011;52423;43.512;5.220;2023-06-24T01:47:31;7.15;;;2.78;;
65706;SDS011;52423;43.512;5.220;2023-06-24T01:49:59;6.50;;;3.20;;
65706;SDS011;52423;43.512;5.220;2023-06-24T01:52:27;2.92;;;2.67;;
65706;SDS011;52423;43.512;5.220;2023-06-24T01:54:55;2.95;;;2.63;;
65706;SDS011;52423;43.512;5.220;2023-06-24T01:57:23;4.25;;;2.75;;
65706;SDS011;52423;43.512;5.220;2023-06-24T01:59:52;2.58;;;2.40;;
65706;SDS011;52423;43.512;5.220;2023-06-24T02:02:20;8.50;;;2.50;;
65706;SDS011;52423;43.512;5.220;2023-06-24T02:04:47;3.15;;;2.95;;
65706;SDS011;52423;43.512;5.220;2023-06-24T02:07:15;5.00;;;2.55;;
65706;SDS011;52423;43.512;5.220;2023-06-24T02:09:42;3.40;;;2.60;;
65706;SDS011;52423;43.512;5.220;2023-06-24T02:12:09;6.20;;;2.90;;
65706;SDS011;52423;43.512;5.220;2023-06-24T02:14:35;8.35;;;2.72;;
65706;SDS011;52423;43.512;5.220;2023-06-24T02:17:04;5.07;;;3.17;;
65706;SDS011;52423;43.512;5.220;2023-06-24T02:19:31;2.70;;;2.50;;
65706;SDS011;52423;43.512;5.220;2023-06-24T02:21:58;2.58;;;2.38;;
65706;SDS011;52423;43.512;5.220;2023-06-24T02:24:24;2.50;;;2.28;;
65706;SDS011;52423;43.512;5.220;2023-06-24T02:26:51;3.17;;;2.88;;
65706;SDS011;52423;43.512;5.220;2023-06-24T02:29:18;2.90;;;2.70;;
65706;SDS011;52423;43.512;5.220;2023-06-24T02:31:45;4.50;;;2.50;;
65706;SDS011;52423;43.512;5.220;2023-06-24T02:34:10;2.90;;;2.70;;
65706;SDS011;52423;43.512;5.220;2023-06-24T02:36:36;2.60;;;2.40;;
65706;SDS011;52423;43.512;5.220;2023-06-24T02:39:01;4.15;;;2.97;;
65706;SDS011;52423;43.512;5.220;2023-06-24T02:41:27;2.65;;;2.45;;
65706;SDS011;52423;43.512;5.220;2023-06-24T02:43:52;3.63;;;3.08;;
65706;SDS011;52423;43.512;5.220;2023-06-24T02:46:18;2.78;;;2.55;;
65706;SDS011;52423;43.512;5.220;2023-06-24T02:48:45;3.65;;;2.67;;
65706;SDS011;52423;43.512;5.220;2023-06-24T02:51:13;4.90;;;2.90;;
65706;SDS011;52423;43.512;5.220;2023-06-24T02:53:39;11.73;;;2.78;;
65706;SDS011;52423;43.512;5.220;2023-06-24T02:56:05;3.00;;;2.67;;
65706;SDS011;52423;43.512;5.220;2023-06-24T02:58:33;3.25;;;2.80;;
65706;SDS011;52423;43.512;5.220;2023-06-24T03:00:59;4.38;;;2.45;;
65706;SDS011;52423;43.512;5.220;2023-06-24T03:03:25;2.72;;;2.50;;
65706;SDS011;52423;43.512;5.220;2023-06-24T03:05:53;4.88;;;2.95;;
65706;SDS011;52423;43.512;5.220;2023-06-24T03:08:19;3.10;;;2.78;;
65706;SDS011;52423;43.512;5.220;2023-06-24T03:10:44;5.18;;;2.42;;
65706;SDS011;52423;43.512;5.220;2023-06-24T03:13:10;3.10;;;2.80;;
65706;SDS011;52423;43.512;5.220;2023-06-24T03:15:35;2.92;;;2.70;;
65706;SDS011;52423;43.512;5.220;2023-06-24T03:18:01;2.97;;;2.45;;
65706;SDS011;52423;43.512;5.220;2023-06-24T03:20:26;2.92;;;2.72;;
65706;SDS011;52423;43.512;5.220;2023-06-24T03:22:52;3.00;;;2.80;;
65706;SDS011;52423;43.512;5.220;2023-06-24T03:25:17;2.78;;;2.58;;
65706;SDS011;52423;43.512;5.220;2023-06-24T03:27:42;3.85;;;2.55;;
65706;SDS011;52423;43.512;5.220;2023-06-24T03:30:08;3.15;;;2.95;;
65706;SDS011;52423;43.512;5.220;2023-06-24T03:32:35;2.60;;;2.40;;
65706;SDS011;52423;43.512;5.220;2023-06-24T03:35:02;2.80;;;2.60;;
65706;SDS011;52423;43.512;5.220;2023-06-24T03:37:28;3.53;;;2.30;;
65706;SDS011;52423;43.512;5.220;2023-06-24T03:39:55;3.70;;;2.75;;
65706;SDS011;52423;43.512;5.220;2023-06-24T03:42:21;4.28;;;2.63;;
65706;SDS011;52423;43.512;5.220;2023-06-24T03:44:46;3.63;;;2.65;;
65706;SDS011;52423;43.512;5.220;2023-06-24T03:47:12;2.92;;;2.72;;
65706;SDS011;52423;43.512;5.220;2023-06-24T03:49:37;6.70;;;3.15;;
65706;SDS011;52423;43.512;5.220;2023-06-24T03:52:03;3.00;;;2.80;;
65706;SDS011;52423;43.512;5.220;2023-06-24T03:54:30;3.30;;;3.00;;
65706;SDS011;52423;43.512;5.220;2023-06-24T03:56:56;3.08;;;2.80;;
65706;SDS011;52423;43.512;5.220;2023-06-24T03:59:21;3.63;;;3.22;;
65706;SDS011;52423;43.512;5.220;2023-06-24T04:01:47;5.38;;;2.63;;
65706;SDS011;52423;43.512;5.220;2023-06-24T04:04:12;4.38;;;2.45;;
65706;SDS011;52423;43.512;5.220;2023-06-24T04:06:37;3.90;;;2.60;;
65706;SDS011;52423;43.512;5.220;2023-06-24T04:09:03;3.78;;;2.35;;
65706;SDS011;52423;43.512;5.220;2023-06-24T04:11:28;4.30;;;2.50;;
65706;SDS011;52423;43.512;5.220;2023-06-24T04:13:54;3.75;;;2.75;;
65706;SDS011;52423;43.512;5.220;2023-06-24T04:16:19;5.65;;;3.17;;
65706;SDS011;52423;43.512;5.220;2023-06-24T04:18:45;4.13;;;2.90;;
65706;SDS011;52423;43.512;5.220;2023-06-24T04:21:10;3.13;;;2.60;;
65706;SDS011;52423;43.512;5.220;2023-06-24T04:23:36;3.22;;;3.00;;
65706;SDS011;52423;43.512;5.220;2023-06-24T04:26:01;3.15;;;2.85;;
65706;SDS011;52423;43.512;5.220;2023-06-24T04:28:27;8.68;;;2.88;;
65706;SDS011;52423;43.512;5.220;2023-06-24T04:30:53;3.10;;;2.78;;
65706;SDS011;52423;43.512;5.220;2023-06-24T04:33:19;4.13;;;2.85;;
65706;SDS011;52423;43.512;5.220;2023-06-24T04:35:45;2.70;;;2.50;;
65706;SDS011;52423;43.512;5.220;2023-06-24T04:38:11;3.15;;;2.85;;
65706;SDS011;52423;43.512;5.220;2023-06-24T04:40:42;3.17;;;2.85;;
65706;SDS011;52423;43.512;5.220;2023-06-24T04:43:08;2.92;;;2.72;;
65706;SDS011;52423;43.512;5.220;2023-06-24T04:45:33;5.30;;;3.05;;
65706;SDS011;52423;43.512;5.220;2023-06-24T04:47:59;3.92;;;3.20;;
65706;SDS011;52423;43.512;5.220;2023-06-24T04:50:24;6.97;;;2.65;;
65706;SDS011;52423;43.512;5.220;2023-06-24T04:52:53;6.78;;;2.70;;
65706;SDS011;52423;43.512;5.220;2023-06-24T04:55:20;5.95;;;2.65;;
65706;SDS011;52423;43.512;5.220;2023-06-24T04:57:47;5.40;;;2.67;;
65706;SDS011;52423;43.512;5.220;2023-06-24T05:00:12;3.47;;;2.80;;
65706;SDS011;52423;43.512;5.220;2023-06-24T05:02:38;4.78;;;2.90;;
65706;SDS011;52423;43.512;5.220;2023-06-24T05:05:03;4.50;;;2.80;;
65706;SDS011;52423;43.512;5.220;2023-06-24T05:07:29;5.28;;;2.80;;
65706;SDS011;52423;43.512;5.220;2023-06-24T05:09:55;5.47;;;2.92;;
65706;SDS011;52423;43.512;5.220;2023-06-24T05:12:20;3.03;;;2.65;;
65706;SDS011;52423;43.512;5.220;2023-06-24T05:14:49;2.92;;;2.58;;
65706;SDS011;52423;43.512;5.220;2023-06-24T05:17:16;3.47;;;2.80;;
65706;SDS011;52423;43.512;5.220;2023-06-24T05:19:41;5.07;;;3.20;;
65706;SDS011;52423;43.512;5.220;2023-06-24T05:22:08;5.55;;;2.97;;
65706;SDS011;52423;43.512;5.220;2023-06-24T05:24:34;4.30;;;2.95;;
65706;SDS011;52423;43.512;5.220;2023-06-24T05:27:03;5.55;;;4.13;;
65706;SDS011;52423;43.512;5.220;2023-06-24T05:29:30;2.97;;;2.67;;
65706;SDS011;52423;43.512;5.220;2023-06-24T05:31:55;3.53;;;2.92;;
65706;SDS011;52423;43.512;5.220;2023-06-24T05:34:21;5.65;;;2.90;;
65706;SDS011;52423;43.512;5.220;2023-06-24T05:36:46;3.30;;;3.00;;
65706;SDS011;52423;43.512;5.220;2023-06-24T05:39:12;4.35;;;2.72;;
65706;SDS011;52423;43.512;5.220;2023-06-24T05:41:38;3.15;;;2.85;;
65706;SDS011;52423;43.512;5.220;2023-06-24T05:44:05;6.65;;;2.90;;
65706;SDS011;52423;43.512;5.220;2023-06-24T05:46:33;5.90;;;2.90;;
65706;SDS011;52423;43.512;5.220;2023-06-24T05:48:59;3.33;;;2.85;;
65706;SDS011;52423;43.512;5.220;2023-06-24T05:51:24;3.03;;;2.72;;
65706;SDS011;52423;43.512;5.220;2023-06-24T05:53:50;3.13;;;2.83;;
65706;SDS011;52423;43.512;5.220;2023-06-24T05:56:15;5.57;;;3.33;;
65706;SDS011;52423;43.512;5.220;2023-06-24T05:58:41;3.65;;;3.08;;
65706;SDS011;52423;43.512;5.220;2023-06-24T06:01:09;4.47;;;3.05;;
65706;SDS011;52423;43.512;5.220;2023-06-24T06:03:35;10.65;;;3.25;;
65706;SDS011;52423;43.512;5.220;2023-06-24T06:06:01;3.38;;;3.15;;
65706;SDS011;52423;43.512;5.220;2023-06-24T06:08:26;2.85;;;2.65;;
65706;SDS011;52423;43.512;5.220;2023-06-24T06:10:52;8.90;;;3.20;;
65706;SDS011;52423;43.512;5.220;2023-06-24T06:13:17;3.33;;;3.03;;
65706;SDS011;52423;43.512;5.220;2023-06-24T06:15:43;6.43;;;3.28;;
65706;SDS011;52423;43.512;5.220;2023-06-24T06:18:08;5.40;;;3.63;;
65706;SDS011;52423;43.512;5.220;2023-06-24T06:20:33;4.00;;;3.40;;
65706;SDS011;52423;43.512;5.220;2023-06-24T06:22:59;3.60;;;3.30;;
65706;SDS011;52423;43.512;5.220;2023-06-24T06:25:24;6.55;;;3.90;;
65706;SDS011;52423;43.512;5.220;2023-06-24T06:27:50;3.17;;;2.88;;
65706;SDS011;52423;43.512;5.220;2023-06-24T06:30:15;5.82;;;3.20;;
65706;SDS011;52423;43.512;5.220;2023-06-24T06:32:41;3.72;;;3.42;;
65706;SDS011;52423;43.512;5.220;2023-06-24T06:35:06;4.80;;;3.63;;
65706;SDS011;52423;43.512;5.220;2023-06-24T06:37:33;6.82;;;3.53;;
65706;SDS011;52423;43.512;5.220;2023-06-24T06:39:58;5.88;;;3.30;;
65706;SDS011;52423;43.512;5.220;2023-06-24T06:42:24;5.60;;;3.42;;
65706;SDS011;52423;43.512;5.220;2023-06-24T06:44:49;7.40;;;3.75;;
65706;SDS011;52423;43.512;5.220;2023-06-24T06:47:15;9.25;;;8.32;;
65706;SDS011;52423;43.512;5.220;2023-06-24T06:49:40;3.67;;;3.38;;
65706;SDS011;52423;43.512;5.220;2023-06-24T06:52:06;5.38;;;3.45;;
65706;SDS011;52423;43.512;5.220;2023-06-24T06:54:32;7.40;;;3.67;;
65706;SDS011;52423;43.512;5.220;2023-06-24T06:57:03;4.78;;;3.60;;
65706;SDS011;52423;43.512;5.220;2023-06-24T06:59:30;7.57;;;3.50;;
65706;SDS011;52423;43.512;5.220;2023-06-24T07:01:56;4.13;;;3.65;;
65706;SDS011;52423;43.512;5.220;2023-06-24T07:04:21;4.18;;;3.80;;
65706;SDS011;52423;43.512;5.220;2023-06-24T07:06:47;4.05;;;3.42;;
65706;SDS011;52423;43.512;5.220;2023-06-24T07:09:12;3.65;;;3.45;;
65706;SDS011;52423;43.512;5.220;2023-06-24T07:11:38;4.90;;;3.25;;
65706;SDS011;52423;43.512;5.220;2023-06-24T07:14:03;3.70;;;3.40;;
65706;SDS011;52423;43.512;5.220;2023-06-24T07:16:29;6.05;;;3.78;;
65706;SDS011;52423;43.512;5.220;2023-06-24T07:18:54;5.45;;;3.53;;
65706;SDS011;52423;43.512;5.220;2023-06-24T07:21:19;4.90;;;3.50;;
65706;SDS011;52423;43.512;5.220;2023-06-24T07:23:46;4.38;;;3.65;;
65706;SDS011;52423;43.512;5.220;2023-06-24T07:26:11;3.83;;;3.50;;
65706;SDS011;52423;43.512;5.220;2023-06-24T07:28:37;4.10;;;3.80;;
65706;SDS011;52423;43.512;5.220;2023-06-24T07:31:02;4.00;;;3.60;;
65706;SDS011;52423;43.512;5.220;2023-06-24T07:33:27;8.45;;;3.88;;
65706;SDS011;52423;43.512;5.220;2023-06-24T07:35:55;8.75;;;3.92;;
65706;SDS011;52423;43.512;5.220;2023-06-24T07:38:21;4.00;;;3.60;;
65706;SDS011;52423;43.512;5.220;2023-06-24T07:40:46;4.50;;;4.07;;
65706;SDS011;52423;43.512;5.220;2023-06-24T07:43:12;7.50;;;3.83;;
65706;SDS011;52423;43.512;5.220;2023-06-24T07:45:37;3.85;;;3.47;;
65706;SDS011;52423;43.512;5.220;2023-06-24T07:48:02;3.97;;;3.67;;
65706;SDS011;52423;43.512;5.220;2023-06-24T07:50:30;4.70;;;4.30;;
65706;SDS011;52423;43.512;5.220;2023-06-24T07:52:56;4.00;;;3.60;;
65706;SDS011;52423;43.512;5.220;2023-06-24T07:55:21;3.97;;;3.53;;
65706;SDS011;52423;43.512;5.220;2023-06-24T07:57:47;6.00;;;3.70;;
65706;SDS011;52423;43.512;5.220;2023-06-24T08:00:13;4.20;;;3.72;;
65706;SDS011;52423;43.512;5.220;2023-06-24T08:02:40;7.07;;;6.38;;
65706;SDS011;52423;43.512;5.220;2023-06-24T08:05:06;5.18;;;3.97;;
65706;SDS011;52423;43.512;5.220;2023-06-24T08:07:32;6.32;;;4.00;;
65706;SDS011;52423;43.512;5.220;2023-06-24T08:09:57;10.43;;;3.92;;
65706;SDS011;52423;43.512;5.220;2023-06-24T08:12:23;14.15;;;4.18;;
65706;SDS011;52423;43.512;5.220;2023-06-24T08:14:48;4.15;;;3.75;;
65706;SDS011;52423;43.512;5.220;2023-06-24T08:17:14;4.30;;;3.90;;
65706;SDS011;52423;43.512;5.220;2023-06-24T08:19:39;6.25;;;3.83;;
65706;SDS011;52423;43.512;5.220;2023-06-24T08:22:04;4.68;;;4.18;;
65706;SDS011;52423;43.512;5.220;2023-06-24T08:24:30;5.00;;;3.90;;
65706;SDS011;52423;43.512;5.220;2023-06-24T08:26:56;5.78;;;3.97;;
65706;SDS011;52423;43.512;5.220;2023-06-24T08:29:21;4.20;;;3.80;;
65706;SDS011;52423;43.512;5.220;2023-06-24T08:31:47;4.13;;;3.83;;
65706;SDS011;52423;43.512;5.220;2023-06-24T08:34:12;5.90;;;4.15;;
65706;SDS011;52423;43.512;5.220;2023-06-24T08:36:38;7.50;;;4.18;;
65706;SDS011;52423;43.512;5.220;2023-06-24T08:39:03;4.93;;;3.78;;
65706;SDS011;52423;43.512;5.220;2023-06-24T08:41:29;8.65;;;4.07;;
65706;SDS011;52423;43.512;5.220;2023-06-24T08:43:54;4.50;;;4.10;;
65706;SDS011;52423;43.512;5.220;2023-06-24T08:46:20;5.53;;;3.80;;
65706;SDS011;52423;43.512;5.220;2023-06-24T08:48:46;8.30;;;4.10;;
65706;SDS011;52423;43.512;5.220;2023-06-24T08:51:14;8.43;;;3.97;;
65706;SDS011;52423;43.512;5.220;2023-06-24T08:53:43;6.30;;;3.97;;
65706;SDS011;52423;43.512;5.220;2023-06-24T08:56:09;4.35;;;3.92;;
65706;SDS011;52423;43.512;5.220;2023-06-24T08:58:35;5.45;;;4.13;;
65706;SDS011;52423;43.512;5.220;2023-06-24T09:01:01;4.32;;;3.92;;
65706;SDS011;52423;43.512;5.220;2023-06-24T09:03:27;3.92;;;3.63;;
65706;SDS011;52423;43.512;5.220;2023-06-24T09:05:53;9.05;;;4.50;;
65706;SDS011;52423;43.512;5.220;2023-06-24T09:08:18;5.28;;;4.10;;
65706;SDS011;52423;43.512;5.220;2023-06-24T09:10:46;12.05;;;4.18;;
65706;SDS011;52423;43.512;5.220;2023-06-24T09:13:20;4.57;;;4.22;;
65706;SDS011;52423;43.512;5.220;2023-06-24T09:15:48;4.28;;;3.97;;
65706;SDS011;52423;43.512;5.220;2023-06-24T09:18:13;5.57;;;3.75;;
65706;SDS011;52423;43.512;5.220;2023-06-24T09:20:42;6.82;;;4.15;;
65706;SDS011;52423;43.512;5.220;2023-06-24T09:23:10;8.05;;;4.28;;
65706;SDS011;52423;43.512;5.220;2023-06-24T09:25:35;7.72;;;3.60;;
65706;SDS011;52423;43.512;5.220;2023-06-24T09:28:01;7.75;;;4.22;;
65706;SDS011;52423;43.512;5.220;2023-06-24T09:30:27;5.82;;;4.43;;
65706;SDS011;52423;43.512;5.220;2023-06-24T09:32:53;3.90;;;3.60;;
65706;SDS011;52423;43.512;5.220;2023-06-24T09:35:20;5.68;;;4.30;;
65706;SDS011;52423;43.512;5.220;2023-06-24T09:37:54;6.03;;;3.90;;
65706;SDS011;52423;43.512;5.220;2023-06-24T09:40:21;6.33;;;4.53;;
65706;SDS011;52423;43.512;5.220;2023-06-24T09:42:51;7.03;;;4.38;;
65706;SDS011;52423;43.512;5.220;2023-06-24T09:45:24;5.72;;;3.90;;
65706;SDS011;52423;43.512;5.220;2023-06-24T09:47:51;7.43;;;3.78;;
65706;SDS011;52423;43.512;5.220;2023-06-24T09:50:17;12.90;;;9.63;;
65706;SDS011;52423;43.512;5.220;2023-06-24T09:52:44;6.22;;;3.95;;
65706;SDS011;52423;43.512;5.220;2023-06-24T09:55:12;8.32;;;4.22;;
65706;SDS011;52423;43.512;5.220;2023-06-24T09:57:40;10.02;;;5.50;;
65706;SDS011;52423;43.512;5.220;2023-06-24T10:00:16;8.57;;;4.20;;
65706;SDS011;52423;43.512;5.220;2023-06-24T10:02:44;5.65;;;3.90;;
65706;SDS011;52423;43.512;5.220;2023-06-24T10:05:14;6.82;;;4.35;;
65706;SDS011;52423;43.512;5.220;2023-06-24T10:07:40;4.88;;;3.97;;
65706;SDS011;52423;43.512;5.220;2023-06-24T10:10:07;4.82;;;3.55;;
65706;SDS011;52423;43.512;5.220;2023-06-24T10:12:34;6.30;;;4.03;;
65706;SDS011;52423;43.512;5.220;2023-06-24T10:15:00;4.82;;;4.43;;
65706;SDS011;52423;43.512;5.220;2023-06-24T10:17:26;4.20;;;3.65;;
65706;SDS011;52423;43.512;5.220;2023-06-24T10:19:52;7.57;;;4.25;;
65706;SDS011;52423;43.512;5.220;2023-06-24T10:22:24;8.02;;;3.90;;
65706;SDS011;52423;43.512;5.220;2023-06-24T10:24:51;8.23;;;3.85;;
65706;SDS011;52423;43.512;5.220;2023-06-24T10:27:19;4.82;;;4.05;;
65706;SDS011;52423;43.512;5.220;2023-06-24T10:29:50;4.05;;;3.70;;
65706;SDS011;52423;43.512;5.220;2023-06-24T10:32:21;8.00;;;3.83;;
65706;SDS011;52423;43.512;5.220;2023-06-24T10:34:53;4.15;;;3.83;;
65706;SDS011;52423;43.512;5.220;2023-06-24T10:42:25;5.13;;;4.10;;
65706;SDS011;52423;43.512;5.220;2023-06-24T10:44:51;11.73;;;3.75;;
65706;SDS011;52423;43.512;5.220;2023-06-24T10:47:18;4.22;;;3.83;;
65706;SDS011;52423;43.512;5.220;2023-06-24T10:49:45;4.10;;;3.70;;
65706;SDS011;52423;43.512;5.220;2023-06-24T10:52:11;4.32;;;3.75;;
65706;SDS011;52423;43.512;5.220;2023-06-24T10:54:37;4.32;;;3.53;;
65706;SDS011;52423;43.512;5.220;2023-06-24T10:57:03;4.55;;;3.55;;
65706;SDS011;52423;43.512;5.220;2023-06-24T10:59:39;11.70;;;4.30;;
65706;SDS011;52423;43.512;5.220;2023-06-24T11:02:07;6.60;;;4.30;;
65706;SDS011;52423;43.512;5.220;2023-06-24T11:04:34;5.13;;;3.70;;
65706;SDS011;52423;43.512;5.220;2023-06-24T11:07:07;5.63;;;3.90;;
65706;SDS011;52423;43.512;5.220;2023-06-24T11:09:33;6.38;;;3.65;;
65706;SDS011;52423;43.512;5.220;2023-06-24T11:11:58;7.85;;;3.95;;
65706;SDS011;52423;43.512;5.220;2023-06-24T11:14:24;4.15;;;3.72;;
65706;SDS011;52423;43.512;5.220;2023-06-24T11:16:49;6.05;;;4.20;;
65706;SDS011;52423;43.512;5.220;2023-06-24T11:19:15;8.77;;;5.18;;
65706;SDS011;52423;43.512;5.220;2023-06-24T11:21:40;5.38;;;3.97;;
65706;SDS011;52423;43.512;5.220;2023-06-24T11:24:06;8.65;;;4.32;;
65706;SDS011;52423;43.512;5.220;2023-06-24T11:26:34;5.30;;;3.70;;
65706;SDS011;52423;43.512;5.220;2023-06-24T11:29:00;5.63;;;4.07;;
65706;SDS011;52423;43.512;5.220;2023-06-24T11:31:25;5.15;;;3.92;;
65706;SDS011;52423;43.512;5.220;2023-06-24T11:33:51;7.78;;;3.63;;
65706;SDS011;52423;43.512;5.220;2023-06-24T11:36:20;4.13;;;3.72;;
65706;SDS011;52423;43.512;5.220;2023-06-24T11:38:46;4.22;;;3.83;;
65706;SDS011;52423;43.512;5.220;2023-06-24T11:41:12;6.30;;;3.90;;
65706;SDS011;52423;43.512;5.220;2023-06-24T11:43:43;4.78;;;3.67;;
65706;SDS011;52423;43.512;5.220;2023-06-24T11:46:09;5.30;;;4.05;;
65706;SDS011;52423;43.512;5.220;2023-06-24T11:48:38;7.97;;;4.10;;
65706;SDS011;52423;43.512;5.220;2023-06-24T11:51:11;5.93;;;4.77;;
65706;SDS011;52423;43.512;5.220;2023-06-24T11:53:41;5.72;;;4.32;;
65706;SDS011;52423;43.512;5.220;2023-06-24T11:56:08;4.95;;;4.18;;
65706;SDS011;52423;43.512;5.220;2023-06-24T11:58:34;4.18;;;3.75;;
65706;SDS011;52423;43.512;5.220;2023-06-24T12:01:03;8.82;;;4.28;;
65706;SDS011;52423;43.512;5.220;2023-06-24T12:03:28;4.07;;;3.72;;
65706;SDS011;52423;43.512;5.220;2023-06-24T12:05:55;6.47;;;4.20;;
65706;SDS011;52423;43.512;5.220;2023-06-24T12:08:20;4.88;;;3.95;;
65706;SDS011;52423;43.512;5.220;2023-06-24T12:10:47;5.95;;;4.00;;
65706;SDS011;52423;43.512;5.220;2023-06-24T12:13:13;6.93;;;4.03;;
65706;SDS011;52423;43.512;5.220;2023-06-24T12:15:38;5.30;;;4.18;;
65706;SDS011;52423;43.512;5.220;2023-06-24T12:18:04;5.57;;;4.20;;
65706;SDS011;52423;43.512;5.220;2023-06-24T12:20:30;4.68;;;4.28;;
65706;SDS011;52423;43.512;5.220;2023-06-24T12:22:57;4.50;;;4.10;;
65706;SDS011;52423;43.512;5.220;2023-06-24T12:25:23;4.45;;;4.05;;
65706;SDS011;52423;43.512;5.220;2023-06-24T12:27:49;5.32;;;3.70;;
65706;SDS011;52423;43.512;5.220;2023-06-24T12:30:15;4.97;;;3.85;;
65706;SDS011;52423;43.512;5.220;2023-06-24T12:32:41;5.72;;;4.20;;
65706;SDS011;52423;43.512;5.220;2023-06-24T12:35:08;4.63;;;4.15;;
65706;SDS011;52423;43.512;5.220;2023-06-24T12:37:37;4.18;;;3.88;;
65706;SDS011;52423;43.512;5.220;2023-06-24T12:40:03;5.57;;;4.30;;
65706;SDS011;52423;43.512;5.220;2023-06-24T12:42:29;4.38;;;3.72;;
65706;SDS011;52423;43.512;5.220;2023-06-24T12:44:55;4.80;;;3.58;;
65706;SDS011;52423;43.512;5.220;2023-06-24T12:47:21;4.75;;;4.28;;
65706;SDS011;52423;43.512;5.220;2023-06-24T12:49:47;10.35;;;4.13;;
65706;SDS011;52423;43.512;5.220;2023-06-24T12:52:13;5.47;;;4.05;;
65706;SDS011;52423;43.512;5.220;2023-06-24T12:54:38;10.05;;;3.95;;
65706;SDS011;52423;43.512;5.220;2023-06-24T12:57:04;8.55;;;3.92;;
65706;SDS011;52423;43.512;5.220;2023-06-24T12:59:30;6.07;;;4.00;;
65706;SDS011;52423;43.512;5.220;2023-06-24T13:01:55;6.35;;;3.63;;
65706;SDS011;52423;43.512;5.220;2023-06-24T13:04:20;7.10;;;4.15;;
65706;SDS011;52423;43.512;5.220;2023-06-24T13:06:48;8.55;;;3.88;;
65706;SDS011;52423;43.512;5.220;2023-06-24T13:09:14;4.85;;;3.90;;
65706;SDS011;52423;43.512;5.220;2023-06-24T13:11:39;5.43;;;3.85;;
65706;SDS011;52423;43.512;5.220;2023-06-24T13:14:05;7.07;;;4.20;;
65706;SDS011;52423;43.512;5.220;2023-06-24T13:16:31;4.13;;;3.83;;
65706;SDS011;52423;43.512;5.220;2023-06-24T13:18:56;8.05;;;4.20;;
65706;SDS011;52423;43.512;5.220;2023-06-24T13:21:22;5.70;;;3.85;;
65706;SDS011;52423;43.512;5.220;2023-06-24T13:23:48;6.20;;;3.72;;
65706;SDS011;52423;43.512;5.220;2023-06-24T13:26:13;6.70;;;4.20;;
65706;SDS011;52423;43.512;5.220;2023-06-24T13:28:39;6.72;;;4.00;;
65706;SDS011;52423;43.512;5.220;2023-06-24T13:31:05;5.38;;;3.92;;
65706;SDS011;52423;43.512;5.220;2023-06-24T13:33:31;11.38;;;3.95;;
65706;SDS011;52423;43.512;5.220;2023-06-24T13:35:56;5.68;;;4.20;;
65706;SDS011;52423;43.512;5.220;2023-06-24T13:38:22;5.20;;;3.78;;
65706;SDS011;52423;43.512;5.220;2023-06-24T13:40:47;3.80;;;3.50;;
65706;SDS011;52423;43.512;5.220;2023-06-24T13:43:13;5.05;;;3.92;;
65706;SDS011;52423;43.512;5.220;2023-06-24T13:45:38;5.40;;;4.00;;
65706;SDS011;52423;43.512;5.220;2023-06-24T13:48:04;5.47;;;4.20;;
65706;SDS011;52423;43.512;5.220;2023-06-24T13:50:29;4.30;;;3.88;;
65706;SDS011;52423;43.512;5.220;2023-06-24T13:52:55;5.28;;;4.00;;
65706;SDS011;52423;43.512;5.220;2023-06-24T13:55:20;3.97;;;3.67;;
65706;SDS011;52423;43.512;5.220;2023-06-24T13:57:46;7.07;;;4.10;;
65706;SDS011;52423;43.512;5.220;2023-06-24T14:00:12;5.57;;;4.30;;
65706;SDS011;52423;43.512;5.220;2023-06-24T14:02:38;6.00;;;4.05;;
65706;SDS011;52423;43.512;5.220;2023-06-24T14:05:04;5.65;;;3.70;;
65706;SDS011;52423;43.512;5.220;2023-06-24T14:07:30;6.32;;;3.72;;
65706;SDS011;52423;43.512;5.220;2023-06-24T14:09:55;8.52;;;4.07;;
65706;SDS011;52423;43.512;5.220;2023-06-24T14:12:21;4.63;;;3.53;;
65706;SDS011;52423;43.512;5.220;2023-06-24T14:14:46;7.13;;;4.13;;
65706;SDS011;52423;43.512;5.220;2023-06-24T14:17:12;4.65;;;3.97;;
65706;SDS011;52423;43.512;5.220;2023-06-24T14:19:40;4.25;;;3.90;;
65706;SDS011;52423;43.512;5.220;2023-06-24T14:22:06;4.72;;;4.32;;
65706;SDS011;52423;43.512;5.220;2023-06-24T14:24:33;10.00;;;4.45;;
65706;SDS011;52423;43.512;5.220;2023-06-24T14:26:58;9.30;;;4.57;;
65706;SDS011;52423;43.512;5.220;2023-06-24T14:29:24;5.60;;;4.07;;
65706;SDS011;52423;43.512;5.220;2023-06-24T14:31:50;6.47;;;4.50;;
65706;SDS011;52423;43.512;5.220;2023-06-24T14:34:16;7.57;;;4.15;;
65706;SDS011;52423;43.512;5.220;2023-06-24T14:36:42;6.68;;;3.97;;
65706;SDS011;52423;43.512;5.220;2023-06-24T14:39:07;10.13;;;4.05;;
65706;SDS011;52423;43.512;5.220;2023-06-24T14:41:33;4.75;;;3.90;;
65706;SDS011;52423;43.512;5.220;2023-06-24T14:43:58;4.30;;;3.90;;
65706;SDS011;52423;43.512;5.220;2023-06-24T14:46:23;5.35;;;3.78;;
65706;SDS011;52423;43.512;5.220;2023-06-24T14:48:49;4.75;;;4.20;;
65706;SDS011;52423;43.512;5.220;2023-06-24T14:51:14;7.13;;;4.18;;
65706;SDS011;52423;43.512;5.220;2023-06-24T14:53:40;5.68;;;4.40;;
65706;SDS011;52423;43.512;5.220;2023-06-24T14:56:05;5.93;;;4.05;;
65706;SDS011;52423;43.512;5.220;2023-06-24T14:58:31;6.72;;;3.70;;
65706;SDS011;52423;43.512;5.220;2023-06-24T15:00:56;6.50;;;3.75;;
65706;SDS011;52423;43.512;5.220;2023-06-24T15:03:21;4.30;;;3.90;;
65706;SDS011;52423;43.512;5.220;2023-06-24T15:05:47;5.13;;;3.95;;